Time;durP1;ratioP1;P1;durP2;ratioP2;P2;SDS_P1;SDS_P2;PMS_P1;PMS_P2;Temp;Humidity;BMP_temperature;BMP_pressure;BME280_temperature;BME280_humidity;BME280_pressure;Samples;Min_cycle;Max_cycle;Signal;HPM_P1;HPM_P2
2022/11/30 14:17:38;;;;;;;61.40;21.70;;;;;;;;;;5078689;28;20722;-93
2022/11/30 14:20:13;;;;;;;59.88;22.05;;;;;;;;;;5049712;28;20112;-93
2022/11/30 14:22:39;;;;;;;56.03;20.15;;;;;;;;;;5045965;28;20523;-90
2022/11/30 14:25:11;;;;;;;52.53;20.55;;;;;;;;;;5041500;28;20025;-91
2022/11/30 14:27:36;;;;;;;55.80;20.55;;;;;;;;;;5050894;28;20040;-92
2022/11/30 14:30:02;;;;;;;56.40;19.95;;;;;;;;;;5052874;28;20017;-92
2022/11/30 14:32:32;;;;;;;51.85;20.77;;;;;;;;;;5051000;28;20028;-92
2022/11/30 14:35:04;;;;;;;52.58;20.00;;;;;;;;;;5052976;28;20352;-92
2022/11/30 14:37:30;;;;;;;;;;;;;;;;;;5029960;28;20029;-91
2022/11/30 14:40:00;;;;;;;56.50;20.55;;;;;;;;;;5049023;28;19905;-94
2022/11/30 14:42:26;;;;;;;52.50;20.70;;;;;;;;;;5042778;28;20195;-92
2022/11/30 14:44:52;;;;;;;52.20;20.40;;;;;;;;;;5056423;28;20048;-89
2022/11/30 14:47:25;;;;;;;52.85;21.20;;;;;;;;;;5051214;28;20075;-90
2022/11/30 14:49:52;;;;;;;48.33;18.80;;;;;;;;;;5056020;28;20052;-90
2022/11/30 14:52:38;;;;;;;55.28;21.10;;;;;;;;;;5047679;28;20022;-90
2022/11/30 14:55:13;;;;;;;61.85;21.83;;;;;;;;;;5042012;28;20406;-92
2022/11/30 14:57:43;;;;;;;54.85;22.02;;;;;;;;;;5052550;28;20472;-90
2022/11/30 15:00:19;;;;;;;53.45;19.27;;;;;;;;;;5048907;28;20071;-90
2022/11/30 15:02:45;;;;;;;52.63;20.70;;;;;;;;;;5056217;28;20033;-90
2022/11/30 15:05:20;;;;;;;48.58;19.67;;;;;;;;;;5058379;28;20021;-90
2022/11/30 15:07:46;;;;;;;50.38;21.30;;;;;;;;;;5064825;28;20063;-90
2022/11/30 15:10:14;;;;;;;49.03;20.80;;;;;;;;;;5048641;28;20516;-91
2022/11/30 15:12:40;;;;;;;52.80;20.10;;;;;;;;;;5051887;28;20021;-89
2022/11/30 15:15:05;;;;;;;49.72;21.02;;;;;;;;;;5045989;28;20078;-89
2022/11/30 15:17:30;;;;;;;59.22;22.48;;;;;;;;;;5049152;28;20032;-91
2022/11/30 15:19:56;;;;;;;55.53;21.23;;;;;;;;;;5045337;28;20018;-89
2022/11/30 15:22:24;;;;;;;48.75;19.83;;;;;;;;;;5058062;28;20096;-89
2022/11/30 15:24:49;;;;;;;55.92;21.10;;;;;;;;;;5058648;28;20047;-88
2022/11/30 15:27:20;;;;;;;55.33;21.33;;;;;;;;;;5043126;28;20013;-88
2022/11/30 15:29:48;;;;;;;58.47;21.52;;;;;;;;;;5024436;28;20026;-90
2022/11/30 15:32:15;;;;;;;58.83;21.85;;;;;;;;;;5028027;28;20326;-91
2022/11/30 15:34:43;;;;;;;54.80;22.73;;;;;;;;;;5034461;28;20021;-89
2022/11/30 15:37:09;;;;;;;56.05;22.20;;;;;;;;;;5037118;28;20025;-90
2022/11/30 15:39:34;;;;;;;64.38;23.00;;;;;;;;;;5040228;28;20022;-90
2022/11/30 15:42:00;;;;;;;54.83;22.00;;;;;;;;;;5025408;28;20385;-88
2022/11/30 15:44:38;;;;;;;59.38;22.92;;;;;;;;;;5034586;28;20018;-90
2022/11/30 15:47:05;;;;;;;59.85;22.75;;;;;;;;;;5034105;28;20013;-88
2022/11/30 15:49:31;;;;;;;57.25;21.67;;;;;;;;;;5034098;28;20049;-88
2022/11/30 15:51:58;;;;;;;53.63;21.88;;;;;;;;;;5033329;28;20013;-91
2022/11/30 15:54:42;;;;;;;74.55;29.92;;;;;;;;;;5042867;28;20016;-89
2022/11/30 15:57:07;;;;;;;68.85;23.95;;;;;;;;;;5037343;28;20017;-89
2022/11/30 15:59:33;;;;;;;51.92;21.60;;;;;;;;;;5027954;28;20037;-90
2022/11/30 16:02:13;;;;;;;59.78;22.58;;;;;;;;;;5033601;28;20044;-89
2022/11/30 16:04:56;;;;;;;62.60;24.05;;;;;;;;;;5033997;28;20021;-91
2022/11/30 16:07:29;;;;;;;58.90;22.92;;;;;;;;;;5050988;28;20052;-90
2022/11/30 16:10:04;;;;;;;95.28;39.22;;;;;;;;;;5039877;28;20049;-89
2022/11/30 16:12:29;;;;;;;71.55;26.75;;;;;;;;;;5047903;28;20473;-90
2022/11/30 16:14:54;;;;;;;57.95;22.10;;;;;;;;;;5034041;28;20026;-90
2022/11/30 16:17:20;;;;;;;52.50;22.10;;;;;;;;;;5033966;28;20029;-90
2022/11/30 16:19:45;;;;;;;49.60;21.05;;;;;;;;;;5033461;28;20075;-90
2022/11/30 16:22:12;;;;;;;53.38;21.30;;;;;;;;;;5033954;28;20518;-91
2022/11/30 16:24:37;;;;;;;48.80;21.45;;;;;;;;;;5030064;28;20032;-89
2022/11/30 16:27:12;;;;;;;54.67;20.83;;;;;;;;;;5033995;28;20108;-89
2022/11/30 16:29:37;;;;;;;51.30;21.90;;;;;;;;;;5038004;28;20378;-89
2022/11/30 16:32:02;;;;;;;56.22;23.75;;;;;;;;;;5035247;28;20041;-90
2022/11/30 16:34:27;;;;;;;53.17;23.75;;;;;;;;;;5037968;28;20032;-90
2022/11/30 16:36:54;;;;;;;60.47;22.65;;;;;;;;;;5037997;28;20028;-88
2022/11/30 16:39:19;;;;;;;50.58;20.88;;;;;;;;;;5026448;28;20029;-89
2022/11/30 16:41:44;;;;;;;45.33;20.35;;;;;;;;;;5037984;28;20068;-88
2022/11/30 16:44:13;;;;;;;52.13;22.27;;;;;;;;;;5033591;28;20465;-91
2022/11/30 16:46:38;;;;;;;53.30;22.55;;;;;;;;;;5033571;28;20021;-91
2022/11/30 16:49:05;;;;;;;53.15;22.33;;;;;;;;;;5033612;28;20084;-91
2022/11/30 16:51:33;;;;;;;47.10;20.13;;;;;;;;;;5033324;28;20033;-90
2022/11/30 16:53:58;;;;;;;54.95;20.98;;;;;;;;;;5033183;28;20025;-89
2022/11/30 16:56:24;;;;;;;44.10;19.95;;;;;;;;;;5033033;28;20028;-89
2022/11/30 16:58:49;;;;;;;40.10;17.85;;;;;;;;;;5032101;28;20021;-90
2022/11/30 17:01:17;;;;;;;50.13;22.23;;;;;;;;;;5033253;28;20025;-90
2022/11/30 17:03:48;;;;;;;47.55;21.45;;;;;;;;;;5046352;28;20048;-90
2022/11/30 17:06:15;;;;;;;51.35;22.60;;;;;;;;;;5022601;28;20017;-91
2022/11/30 17:08:41;;;;;;;66.90;27.07;;;;;;;;;;5031807;28;20025;-91
2022/11/30 17:11:13;;;;;;;55.93;24.60;;;;;;;;;;5031208;28;20021;-90
2022/11/30 17:13:38;;;;;;;48.47;21.35;;;;;;;;;;5042129;28;20495;-91
2022/11/30 17:16:04;;;;;;;63.28;26.13;;;;;;;;;;5046080;28;20025;-91
2022/11/30 17:18:29;;;;;;;193.65;84.60;;;;;;;;;;5030131;28;20030;-89
2022/11/30 17:20:54;;;;;;;171.90;76.10;;;;;;;;;;5034093;28;20183;-90
2022/11/30 17:23:19;;;;;;;77.40;34.17;;;;;;;;;;5024563;28;20155;-91
2022/11/30 17:25:46;;;;;;;52.70;23.17;;;;;;;;;;5032722;28;20022;-90
2022/11/30 17:28:11;;;;;;;105.15;48.97;;;;;;;;;;5028378;28;20025;-90
2022/11/30 17:30:36;;;;;;;69.72;35.40;;;;;;;;;;5032953;28;20353;-89
2022/11/30 17:33:01;;;;;;;47.38;23.13;;;;;;;;;;5031584;28;20025;-88
2022/11/30 17:35:26;;;;;;;46.10;20.10;;;;;;;;;;5033238;28;20022;-90
2022/11/30 17:37:52;;;;;;;42.67;19.80;;;;;;;;;;5031426;28;20017;-91
2022/11/30 17:40:17;;;;;;;49.80;23.60;;;;;;;;;;5031753;28;20018;-90
2022/11/30 17:42:42;;;;;;;45.13;19.77;;;;;;;;;;5028762;28;20377;-89
2022/11/30 17:45:08;;;;;;;40.33;19.67;;;;;;;;;;5033640;28;20043;-91
2022/11/30 17:47:33;;;;;;;41.27;18.63;;;;;;;;;;5031382;28;20022;-89
2022/11/30 17:49:58;;;;;;;44.90;19.90;;;;;;;;;;5031356;28;20025;-89
2022/11/30 17:52:23;;;;;;;44.57;19.77;;;;;;;;;;5027077;28;20381;-91
2022/11/30 17:54:49;;;;;;;41.53;18.13;;;;;;;;;;5023693;28;20025;-89
2022/11/30 17:57:14;;;;;;;37.20;17.88;;;;;;;;;;5031935;28;20084;-89
2022/11/30 17:59:39;;;;;;;38.20;18.50;;;;;;;;;;5033205;28;20037;-89
2022/11/30 18:02:05;;;;;;;39.17;17.42;;;;;;;;;;5030085;28;20035;-90
2022/11/30 18:04:30;;;;;;;37.90;17.73;;;;;;;;;;5023923;28;20021;-91
2022/11/30 18:06:55;;;;;;;47.83;19.40;;;;;;;;;;5037994;28;20068;-93
2022/11/30 18:09:22;;;;;;;39.47;19.43;;;;;;;;;;5018782;28;20121;-89
2022/11/30 18:11:48;;;;;;;48.80;20.00;;;;;;;;;;5023794;28;20572;-91
2022/11/30 18:14:13;;;;;;;43.27;17.73;;;;;;;;;;5029459;28;20125;-90
2022/11/30 18:16:38;;;;;;;35.90;16.77;;;;;;;;;;5029735;28;20105;-91
2022/11/30 18:19:10;;;;;;;41.43;17.80;;;;;;;;;;5031224;28;20068;-89
2022/11/30 18:21:36;;;;;;;31.38;15.55;;;;;;;;;;5030814;28;20041;-87
2022/11/30 18:24:01;;;;;;;41.40;16.23;;;;;;;;;;5031873;28;20043;-88
2022/11/30 18:26:26;;;;;;;39.30;16.73;;;;;;;;;;5029924;28;20434;-88
2022/11/30 18:28:52;;;;;;;43.07;17.47;;;;;;;;;;5026489;28;20529;-88
2022/11/30 18:31:18;;;;;;;36.53;16.60;;;;;;;;;;5043686;28;20476;-88
2022/11/30 18:33:43;;;;;;;35.83;16.47;;;;;;;;;;5029246;28;20025;-88
2022/11/30 18:36:09;;;;;;;33.07;14.70;;;;;;;;;;5020195;28;20060;-87
2022/11/30 18:38:34;;;;;;;31.37;14.93;;;;;;;;;;5020688;28;20478;-88
2022/11/30 18:40:59;;;;;;;34.00;16.00;;;;;;;;;;5021844;28;20017;-89
2022/11/30 18:43:25;;;;;;;37.13;16.23;;;;;;;;;;5031492;28;20164;-88
2022/11/30 18:45:50;;;;;;;38.57;17.27;;;;;;;;;;5031628;28;20025;-88
2022/11/30 18:48:15;;;;;;;35.77;15.13;;;;;;;;;;5030777;28;20151;-89
2022/11/30 18:50:41;;;;;;;35.70;15.57;;;;;;;;;;5045458;28;20029;-88
2022/11/30 18:53:06;;;;;;;37.22;15.88;;;;;;;;;;5023384;28;20036;-89
2022/11/30 18:55:31;;;;;;;34.87;15.37;;;;;;;;;;5030749;28;20018;-89
2022/11/30 18:57:57;;;;;;;33.77;14.57;;;;;;;;;;5015493;28;20017;-87
2022/11/30 19:00:22;;;;;;;39.73;16.97;;;;;;;;;;5031657;28;20517;-87
2022/11/30 19:02:48;;;;;;;37.57;15.50;;;;;;;;;;5031876;28;20331;-90
2022/11/30 19:05:30;;;;;;;34.87;15.23;;;;;;;;;;5034489;28;20449;-89
2022/11/30 19:07:56;;;;;;;28.45;13.88;;;;;;;;;;5035346;28;20045;-89
2022/11/30 19:10:21;;;;;;;31.15;14.00;;;;;;;;;;5035066;28;20029;-89
2022/11/30 19:12:47;;;;;;;33.20;13.53;;;;;;;;;;5035165;28;20032;-90
2022/11/30 19:15:12;;;;;;;32.80;15.37;;;;;;;;;;5034810;28;20017;-88
2022/11/30 19:17:37;;;;;;;32.57;14.70;;;;;;;;;;5027988;28;20124;-90
2022/11/30 19:20:02;;;;;;;33.53;14.60;;;;;;;;;;5039159;28;20013;-90
2022/11/30 19:22:29;;;;;;;32.27;14.90;;;;;;;;;;5035027;28;20119;-90
2022/11/30 19:24:55;;;;;;;31.60;15.23;;;;;;;;;;5034885;28;20036;-90
2022/11/30 19:27:20;;;;;;;36.53;16.33;;;;;;;;;;5031909;28;20460;-89
2022/11/30 19:29:45;;;;;;;29.37;13.87;;;;;;;;;;5033424;28;20076;-89
2022/11/30 19:32:10;;;;;;;35.53;15.57;;;;;;;;;;5032507;28;20162;-91
2022/11/30 19:34:36;;;;;;;35.30;14.83;;;;;;;;;;5033664;28;20026;-89
2022/11/30 19:37:01;;;;;;;38.58;14.48;;;;;;;;;;5028847;28;20049;-89
2022/11/30 19:39:26;;;;;;;30.07;14.40;;;;;;;;;;5038641;28;20028;-90
2022/11/30 19:41:51;;;;;;;33.87;15.13;;;;;;;;;;5038597;28;20021;-89
2022/11/30 19:44:16;;;;;;;31.60;14.57;;;;;;;;;;5034929;28;20507;-90
2022/11/30 19:46:42;;;;;;;31.20;13.13;;;;;;;;;;5040998;28;20477;-90
2022/11/30 19:49:08;;;;;;;32.90;14.70;;;;;;;;;;5032430;28;20017;-89
2022/11/30 19:51:34;;;;;;;34.23;16.27;;;;;;;;;;5034598;28;20021;-91
2022/11/30 19:53:59;;;;;;;31.00;14.63;;;;;;;;;;5021518;28;20056;-89
2022/11/30 19:56:25;;;;;;;35.27;15.90;;;;;;;;;;5028276;28;20048;-90
2022/11/30 19:58:51;;;;;;;39.05;16.77;;;;;;;;;;5044088;28;20473;-89
2022/11/30 20:01:24;;;;;;;36.08;16.15;;;;;;;;;;5034060;28;20029;-89
2022/11/30 20:03:50;;;;;;;39.08;17.73;;;;;;;;;;5030738;28;20021;-89
2022/11/30 20:06:15;;;;;;;48.90;22.20;;;;;;;;;;5045609;28;20048;-88
2022/11/30 20:08:41;;;;;;;43.67;19.27;;;;;;;;;;5024358;28;20032;-90
2022/11/30 20:11:10;;;;;;;47.85;21.35;;;;;;;;;;5030874;28;20054;-89
2022/11/30 20:13:36;;;;;;;36.75;17.23;;;;;;;;;;5036724;28;20025;-90
2022/11/30 20:16:08;;;;;;;38.33;17.00;;;;;;;;;;5028010;28;20026;-88
2022/11/30 20:18:33;;;;;;;35.03;17.00;;;;;;;;;;5049593;28;20017;-88
2022/11/30 20:21:08;;;;;;;35.05;15.90;;;;;;;;;;5038805;28;20052;-88
2022/11/30 20:23:33;;;;;;;46.47;22.63;;;;;;;;;;5029164;28;20083;-88
2022/11/30 20:25:58;;;;;;;35.17;15.98;;;;;;;;;;5030920;28;20338;-89
2022/11/30 20:28:23;;;;;;;34.58;16.38;;;;;;;;;;5032621;28;20014;-89
2022/11/30 20:30:49;;;;;;;37.50;16.95;;;;;;;;;;5031525;28;20026;-90
2022/11/30 20:33:14;;;;;;;41.70;19.85;;;;;;;;;;5032976;28;20021;-90
2022/11/30 20:35:39;;;;;;;52.60;25.67;;;;;;;;;;5040752;28;20460;-91
2022/11/30 20:38:04;;;;;;;61.58;31.17;;;;;;;;;;5039510;28;20076;-90
2022/11/30 20:40:29;;;;;;;47.60;22.30;;;;;;;;;;5043902;28;20017;-89
2022/11/30 20:42:55;;;;;;;79.43;37.60;;;;;;;;;;5033063;28;20075;-89
2022/11/30 20:45:20;;;;;;;204.90;97.28;;;;;;;;;;5032746;28;20090;-90
2022/11/30 20:47:45;;;;;;;100.43;46.40;;;;;;;;;;5031350;28;20476;-91
2022/11/30 20:50:10;;;;;;;58.53;26.97;;;;;;;;;;5027106;28;20453;-88
2022/11/30 20:52:36;;;;;;;36.50;17.00;;;;;;;;;;5029729;28;20025;-89
2022/11/30 20:55:01;;;;;;;39.20;17.10;;;;;;;;;;5023763;28;20496;-89
2022/11/30 20:57:26;;;;;;;32.90;15.83;;;;;;;;;;5029434;28;20033;-89
2022/11/30 20:59:51;;;;;;;45.23;21.37;;;;;;;;;;5031806;28;20047;-90
2022/11/30 21:02:16;;;;;;;57.17;27.80;;;;;;;;;;5031310;28;20053;-89
2022/11/30 21:04:42;;;;;;;46.83;21.27;;;;;;;;;;5031973;28;20174;-87
2022/11/30 21:07:07;;;;;;;36.10;17.40;;;;;;;;;;5017947;28;20022;-88
2022/11/30 21:09:33;;;;;;;40.80;19.13;;;;;;;;;;5039780;28;20560;-91
2022/11/30 21:11:58;;;;;;;40.40;18.40;;;;;;;;;;5029714;28;20048;-88
2022/11/30 21:14:24;;;;;;;41.67;18.90;;;;;;;;;;5032088;28;20071;-88
2022/11/30 21:16:49;;;;;;;46.60;19.80;;;;;;;;;;5032190;28;20455;-90
2022/11/30 21:19:14;;;;;;;43.37;19.37;;;;;;;;;;5028003;28;20022;-89
2022/11/30 21:21:39;;;;;;;41.47;18.87;;;;;;;;;;5030241;28;20021;-88
2022/11/30 21:24:06;;;;;;;53.60;21.57;;;;;;;;;;5031656;28;20424;-88
2022/11/30 21:26:36;;;;;;;39.47;19.07;;;;;;;;;;5032454;28;20057;-89
2022/11/30 21:29:03;;;;;;;42.50;18.27;;;;;;;;;;5032792;28;20039;-87
2022/11/30 21:31:29;;;;;;;107.73;42.70;;;;;;;;;;5030070;28;20362;-90
2022/11/30 21:33:54;;;;;;;97.83;42.57;;;;;;;;;;5034642;28;20029;-89
2022/11/30 21:36:20;;;;;;;66.53;29.87;;;;;;;;;;5031468;28;20104;-89
2022/11/30 21:38:47;;;;;;;45.00;21.77;;;;;;;;;;5030384;28;20032;-91
2022/11/30 21:41:12;;;;;;;39.17;17.63;;;;;;;;;;5031346;28;20018;-89
2022/11/30 21:43:38;;;;;;;41.97;17.93;;;;;;;;;;5031447;28;20014;-89
2022/11/30 21:46:08;;;;;;;42.57;16.60;;;;;;;;;;5032688;28;20037;-89
2022/11/30 21:48:35;;;;;;;47.20;20.87;;;;;;;;;;5040155;28;20028;-89
2022/11/30 21:51:07;;;;;;;36.27;16.93;;;;;;;;;;5031032;28;20115;-88
2022/11/30 21:53:36;;;;;;;36.57;15.97;;;;;;;;;;5031120;28;20630;-90
2022/11/30 21:56:06;;;;;;;36.37;15.77;;;;;;;;;;5031651;28;20021;-91
2022/11/30 21:58:32;;;;;;;37.77;16.93;;;;;;;;;;5047233;28;20527;-90
2022/11/30 22:00:58;;;;;;;37.60;14.57;;;;;;;;;;5033625;28;20021;-90
2022/11/30 22:03:23;;;;;;;39.17;15.83;;;;;;;;;;5039517;28;20028;-91
2022/11/30 22:05:58;;;;;;;36.77;16.47;;;;;;;;;;5031335;28;20037;-90
2022/11/30 22:08:24;;;;;;;40.20;16.23;;;;;;;;;;5029248;28;20115;-90
2022/11/30 22:10:49;;;;;;;47.20;19.90;;;;;;;;;;5030740;28;20053;-90
2022/11/30 22:13:14;;;;;;;37.07;16.30;;;;;;;;;;5030718;28;20022;-90
2022/11/30 22:15:39;;;;;;;41.53;19.50;;;;;;;;;;5031251;28;20048;-91
2022/11/30 22:18:05;;;;;;;44.20;19.03;;;;;;;;;;5030992;28;20018;-90
2022/11/30 22:20:30;;;;;;;43.80;20.73;;;;;;;;;;5031110;28;20037;-91
2022/11/30 22:22:55;;;;;;;38.50;17.60;;;;;;;;;;5031558;28;20018;-91
2022/11/30 22:25:20;;;;;;;53.43;24.10;;;;;;;;;;5027151;28;20022;-90
2022/11/30 22:27:45;;;;;;;48.17;22.30;;;;;;;;;;5028743;28;20113;-91
2022/11/30 22:30:11;;;;;;;52.03;26.50;;;;;;;;;;5031642;28;20116;-90
2022/11/30 22:32:36;;;;;;;51.37;22.77;;;;;;;;;;5031388;28;20039;-91
2022/11/30 22:35:01;;;;;;;47.47;22.13;;;;;;;;;;5031617;28;20029;-90
2022/11/30 22:37:27;;;;;;;36.77;16.23;;;;;;;;;;5027846;28;20445;-90
2022/11/30 22:39:52;;;;;;;36.53;16.10;;;;;;;;;;5030890;28;20104;-91
2022/11/30 22:42:17;;;;;;;40.13;15.77;;;;;;;;;;5035568;28;20041;-90
2022/11/30 22:44:42;;;;;;;35.63;14.93;;;;;;;;;;5034993;28;20108;-89
2022/11/30 22:47:07;;;;;;;41.60;15.47;;;;;;;;;;5034888;28;20021;-91
2022/11/30 22:49:32;;;;;;;34.83;15.90;;;;;;;;;;5034307;28;20107;-91
2022/11/30 22:51:58;;;;;;;39.92;17.95;;;;;;;;;;5041769;28;20052;-91
2022/11/30 22:54:23;;;;;;;37.67;15.83;;;;;;;;;;5036538;28;20382;-90
2022/11/30 22:56:48;;;;;;;36.67;15.30;;;;;;;;;;5035225;28;20145;-91
2022/11/30 22:59:13;;;;;;;38.33;17.53;;;;;;;;;;5047394;28;20110;-91
2022/11/30 23:01:41;;;;;;;40.43;19.10;;;;;;;;;;5034147;28;20028;-90
2022/11/30 23:04:08;;;;;;;42.20;16.60;;;;;;;;;;5036830;28;20040;-94
2022/11/30 23:06:36;;;;;;;39.03;16.57;;;;;;;;;;5035466;28;20469;-92
2022/11/30 23:09:04;;;;;;;37.58;17.80;;;;;;;;;;5035218;28;20029;-92
2022/11/30 23:11:30;;;;;;;39.73;17.37;;;;;;;;;;5035402;28;20059;-92
2022/11/30 23:13:57;;;;;;;44.37;20.27;;;;;;;;;;5035409;28;20021;-92
2022/11/30 23:16:22;;;;;;;34.20;15.83;;;;;;;;;;5035066;28;20056;-93
2022/11/30 23:18:59;;;;;;;35.88;15.88;;;;;;;;;;5035058;28;20022;-92
2022/11/30 23:21:25;;;;;;;44.13;16.93;;;;;;;;;;5034404;28;20044;-92
2022/11/30 23:23:51;;;;;;;33.93;15.03;;;;;;;;;;5036294;28;20025;-92
2022/11/30 23:26:17;;;;;;;34.67;15.87;;;;;;;;;;5035218;28;20034;-92
2022/11/30 23:28:45;;;;;;;30.80;14.70;;;;;;;;;;5035079;28;20032;-92
2022/11/30 23:31:12;;;;;;;33.27;15.73;;;;;;;;;;5034936;28;20025;-92
2022/11/30 23:33:39;;;;;;;38.72;17.83;;;;;;;;;;5034889;28;20055;-92
2022/11/30 23:36:06;;;;;;;41.83;17.40;;;;;;;;;;5035995;28;20100;-92
2022/11/30 23:38:33;;;;;;;35.93;15.23;;;;;;;;;;5035982;28;20098;-92
2022/11/30 23:41:06;;;;;;;34.30;15.13;;;;;;;;;;5033996;28;20075;-92
2022/11/30 23:43:32;;;;;;;37.23;16.40;;;;;;;;;;5031401;28;20017;-91
2022/11/30 23:45:57;;;;;;;35.67;15.37;;;;;;;;;;5034706;28;20029;-91
2022/11/30 23:48:22;;;;;;;34.57;14.60;;;;;;;;;;5034027;28;20053;-92
2022/11/30 23:50:49;;;;;;;36.73;15.73;;;;;;;;;;5034627;28;20492;-92
2022/11/30 23:53:14;;;;;;;32.97;15.33;;;;;;;;;;5034666;28;20155;-93
2022/11/30 23:55:39;;;;;;;41.23;15.73;;;;;;;;;;5035618;28;20033;-92
2022/11/30 23:58:06;;;;;;;36.20;14.83;;;;;;;;;;5034739;28;20025;-92
